LGX01L LICJ-LIMG
Flight info
| Callsign | LGX01L |
|---|---|
| Flight time | 1h 1m |
| Altitude | 36000 |
| Route | GIANO DCT ROXAN DCT KISTO DCT KONER L50 UNITA |
| Aircraft | CL60/M-SADE3FGHIJ3J4J7P2RWXY/HB1D1 |
Departure
| Time | 2026-05-05 16:24 |
|---|---|
| Airport | Falcone–Borsellino Airport (LICJ) |
Arrival
| Time | 2026-05-05 17:25 |
|---|---|
| Airport | Riviera Villanova d'Albenga International Airport (LIMG) |
| Time | Latitude | Longitude | Altitude | Speed | Heading |
|---|---|---|---|---|---|
| 2026-05-05 16:23 | 38.41810 | 13.04491 | 17816 ft | 375 kts | 311° |
| 2026-05-05 16:24 | 38.43622 | 13.02109 | 18732 ft | 380 kts | 311° |
| 2026-05-05 16:24 | 38.45465 | 12.99686 | 19667 ft | 383 kts | 311° |
| 2026-05-05 16:24 | 38.49173 | 12.94807 | 21384 ft | 389 kts | 311° |
| 2026-05-05 16:25 | 38.51068 | 12.92311 | 22169 ft | 393 kts | 311° |
| 2026-05-05 16:25 | 38.54898 | 12.87263 | 23666 ft | 401 kts | 311° |
| 2026-05-05 16:25 | 38.56845 | 12.84695 | 24397 ft | 404 kts | 311° |
| 2026-05-05 16:26 | 38.60780 | 12.79497 | 25735 ft | 412 kts | 311° |
| 2026-05-05 16:26 | 38.64814 | 12.74163 | 26994 ft | 419 kts | 311° |
| 2026-05-05 16:27 | 38.66864 | 12.71448 | 27586 ft | 422 kts | 311° |
| 2026-05-05 16:27 | 38.68903 | 12.68746 | 28119 ft | 425 kts | 311° |
| 2026-05-05 16:27 | 38.70982 | 12.65989 | 28639 ft | 428 kts | 311° |
| 2026-05-05 16:27 | 38.73043 | 12.63253 | 29126 ft | 431 kts | 311° |
| 2026-05-05 16:28 | 38.75147 | 12.60457 | 29577 ft | 434 kts | 311° |
| 2026-05-05 16:28 | 38.77218 | 12.57703 | 30112 ft | 433 kts | 311° |
| 2026-05-05 16:28 | 38.79287 | 12.54952 | 30707 ft | 432 kts | 311° |
| 2026-05-05 16:28 | 38.81365 | 12.52185 | 31333 ft | 429 kts | 311° |
| 2026-05-05 16:29 | 38.83425 | 12.49440 | 31943 ft | 427 kts | 311° |
| 2026-05-05 16:29 | 38.85544 | 12.46777 | 32536 ft | 426 kts | 315° |
| 2026-05-05 16:29 | 38.87872 | 12.44490 | 33053 ft | 429 kts | 323° |
| 2026-05-05 16:29 | 38.90465 | 12.42592 | 33523 ft | 432 kts | 329° |
| 2026-05-05 16:30 | 38.93192 | 12.40927 | 33990 ft | 432 kts | 330° |
| 2026-05-05 16:30 | 38.95914 | 12.39273 | 34449 ft | 431 kts | 330° |
| 2026-05-05 16:30 | 38.98601 | 12.37637 | 34944 ft | 430 kts | 330° |
| 2026-05-05 16:30 | 39.01295 | 12.35995 | 35450 ft | 428 kts | 330° |
| 2026-05-05 16:31 | 39.03960 | 12.34369 | 35925 ft | 427 kts | 329° |
| 2026-05-05 16:31 | 39.06656 | 12.32720 | 36041 ft | 433 kts | 329° |
| 2026-05-05 16:31 | 39.12181 | 12.29336 | 36038 ft | 446 kts | 330° |
| 2026-05-05 16:32 | 39.17791 | 12.25896 | 36039 ft | 451 kts | 330° |
| 2026-05-05 16:32 | 39.23471 | 12.22410 | 36034 ft | 451 kts | 330° |
| 2026-05-05 16:33 | 39.29104 | 12.18945 | 36035 ft | 449 kts | 329° |
| 2026-05-05 16:33 | 39.34750 | 12.15465 | 36031 ft | 449 kts | 329° |
| 2026-05-05 16:34 | 39.40339 | 12.12015 | 36031 ft | 448 kts | 329° |
| 2026-05-05 16:34 | 39.45977 | 12.08527 | 36035 ft | 448 kts | 329° |
| 2026-05-05 16:35 | 39.51569 | 12.05061 | 36033 ft | 448 kts | 329° |
| 2026-05-05 16:35 | 39.57203 | 12.01562 | 36031 ft | 448 kts | 329° |
| 2026-05-05 16:36 | 39.62787 | 11.98089 | 36030 ft | 448 kts | 329° |
| 2026-05-05 16:36 | 39.68412 | 11.94584 | 36031 ft | 448 kts | 329° |
| 2026-05-05 16:37 | 39.73986 | 11.91104 | 35891 ft | 446 kts | 329° |
| 2026-05-05 16:37 | 39.79607 | 11.87586 | 36015 ft | 449 kts | 329° |
| 2026-05-05 16:38 | 39.85230 | 11.84062 | 36027 ft | 451 kts | 329° |
| 2026-05-05 16:38 | 39.90896 | 11.80506 | 36024 ft | 451 kts | 329° |
| 2026-05-05 16:39 | 39.96503 | 11.76980 | 36024 ft | 450 kts | 329° |
| 2026-05-05 16:39 | 40.02150 | 11.73422 | 36027 ft | 449 kts | 329° |
| 2026-05-05 16:40 | 40.07736 | 11.69896 | 36023 ft | 449 kts | 329° |
| 2026-05-05 16:40 | 40.13353 | 11.66343 | 36021 ft | 449 kts | 329° |
| 2026-05-05 16:41 | 40.18959 | 11.62790 | 36021 ft | 450 kts | 329° |
| 2026-05-05 16:41 | 40.24607 | 11.59205 | 36025 ft | 450 kts | 329° |
| 2026-05-05 16:42 | 40.30220 | 11.55636 | 36018 ft | 450 kts | 329° |
| 2026-05-05 16:42 | 40.35825 | 11.52064 | 36019 ft | 450 kts | 329° |
| 2026-05-05 16:43 | 40.41447 | 11.48475 | 36015 ft | 451 kts | 329° |
| 2026-05-05 16:43 | 40.47101 | 11.44859 | 36014 ft | 451 kts | 329° |
| 2026-05-05 16:44 | 40.52729 | 11.41253 | 36014 ft | 451 kts | 329° |
| 2026-05-05 16:44 | 40.58338 | 11.37652 | 36013 ft | 451 kts | 329° |
| 2026-05-05 16:45 | 40.63969 | 11.34029 | 36001 ft | 452 kts | 328° |
| 2026-05-05 16:45 | 40.69623 | 11.30386 | 36005 ft | 451 kts | 328° |
| 2026-05-05 16:46 | 40.75230 | 11.26766 | 35998 ft | 451 kts | 328° |
| 2026-05-05 16:46 | 40.80871 | 11.23117 | 35998 ft | 452 kts | 328° |
| 2026-05-05 16:47 | 40.86606 | 11.19740 | 36001 ft | 455 kts | 332° |
| 2026-05-05 16:47 | 40.92484 | 11.16560 | 35991 ft | 455 kts | 331° |
| 2026-05-05 16:48 | 40.98325 | 11.13388 | 35994 ft | 454 kts | 331° |
| 2026-05-05 16:48 | 41.04169 | 11.10207 | 35987 ft | 454 kts | 331° |
| 2026-05-05 16:49 | 41.09997 | 11.07027 | 35998 ft | 454 kts | 331° |
| 2026-05-05 16:49 | 41.15821 | 11.03841 | 35997 ft | 454 kts | 331° |
| 2026-05-05 16:50 | 41.21641 | 11.00650 | 35991 ft | 455 kts | 331° |
| 2026-05-05 16:50 | 41.27509 | 10.97427 | 35987 ft | 456 kts | 331° |
| 2026-05-05 16:51 | 41.33333 | 10.94221 | 35984 ft | 456 kts | 331° |
| 2026-05-05 16:51 | 41.39178 | 10.90997 | 35982 ft | 456 kts | 330° |
| 2026-05-05 16:52 | 41.45050 | 10.87752 | 35981 ft | 456 kts | 330° |
| 2026-05-05 16:52 | 41.50882 | 10.84522 | 35986 ft | 456 kts | 331° |
| 2026-05-05 16:53 | 41.56755 | 10.81263 | 35984 ft | 456 kts | 330° |
| 2026-05-05 16:53 | 41.62582 | 10.78023 | 35969 ft | 456 kts | 330° |
| 2026-05-05 16:54 | 41.68441 | 10.74758 | 35975 ft | 457 kts | 330° |
| 2026-05-05 16:54 | 41.74283 | 10.71497 | 35978 ft | 457 kts | 330° |
| 2026-05-05 16:55 | 41.80144 | 10.68218 | 35967 ft | 457 kts | 330° |
| 2026-05-05 16:55 | 41.86007 | 10.64931 | 35960 ft | 458 kts | 330° |
| 2026-05-05 16:56 | 41.91880 | 10.61632 | 35967 ft | 458 kts | 330° |
| 2026-05-05 16:56 | 41.97743 | 10.58333 | 35958 ft | 458 kts | 330° |
| 2026-05-05 16:57 | 42.03611 | 10.55024 | 35950 ft | 459 kts | 330° |
| 2026-05-05 16:57 | 42.09458 | 10.51720 | 35952 ft | 459 kts | 330° |
| 2026-05-05 16:58 | 42.15375 | 10.48369 | 35948 ft | 459 kts | 330° |
| 2026-05-05 16:58 | 42.21233 | 10.45046 | 35957 ft | 459 kts | 330° |
| 2026-05-05 16:59 | 42.27120 | 10.41699 | 35947 ft | 459 kts | 330° |
| 2026-05-05 16:59 | 42.32964 | 10.38354 | 35946 ft | 457 kts | 328° |
| 2026-05-05 17:00 | 42.38586 | 10.34438 | 35956 ft | 454 kts | 324° |
| 2026-05-05 17:00 | 42.44147 | 10.30457 | 35958 ft | 454 kts | 324° |
| 2026-05-05 17:01 | 42.49738 | 10.26451 | 35950 ft | 454 kts | 324° |
| 2026-05-05 17:01 | 42.55319 | 10.22446 | 35952 ft | 454 kts | 324° |
| 2026-05-05 17:02 | 42.60889 | 10.18442 | 35952 ft | 454 kts | 324° |
| 2026-05-05 17:02 | 42.66439 | 10.14446 | 35956 ft | 455 kts | 324° |
| 2026-05-05 17:03 | 42.72049 | 10.10401 | 35950 ft | 455 kts | 324° |
| 2026-05-05 17:03 | 42.77624 | 10.06374 | 35947 ft | 455 kts | 324° |
| 2026-05-05 17:04 | 42.83170 | 10.02359 | 35947 ft | 455 kts | 324° |
| 2026-05-05 17:04 | 42.88784 | 9.98286 | 35947 ft | 457 kts | 324° |
| 2026-05-05 17:05 | 42.94384 | 9.94217 | 35951 ft | 457 kts | 324° |
| 2026-05-05 17:05 | 42.99973 | 9.90148 | 35947 ft | 456 kts | 324° |
| 2026-05-05 17:06 | 43.05527 | 9.86096 | 35948 ft | 456 kts | 323° |
| 2026-05-05 17:06 | 43.11109 | 9.82015 | 35946 ft | 456 kts | 323° |
| 2026-05-05 17:07 | 43.16705 | 9.77914 | 35948 ft | 457 kts | 324° |
| 2026-05-05 17:07 | 43.22301 | 9.73806 | 35946 ft | 456 kts | 323° |
| 2026-05-05 17:08 | 43.27867 | 9.69710 | 35572 ft | 458 kts | 323° |
| 2026-05-05 17:08 | 43.30680 | 9.67640 | 34810 ft | 455 kts | 323° |
| 2026-05-05 17:08 | 43.33427 | 9.65617 | 34056 ft | 452 kts | 323° |
| 2026-05-05 17:09 | 43.36198 | 9.63574 | 33294 ft | 448 kts | 323° |
| 2026-05-05 17:09 | 43.38907 | 9.61574 | 32556 ft | 444 kts | 323° |
| 2026-05-05 17:09 | 43.41591 | 9.59591 | 31821 ft | 440 kts | 323° |
| 2026-05-05 17:09 | 43.44302 | 9.57582 | 31068 ft | 441 kts | 323° |
| 2026-05-05 17:10 | 43.46972 | 9.55598 | 30335 ft | 445 kts | 323° |
| 2026-05-05 17:10 | 43.49703 | 9.53554 | 29578 ft | 446 kts | 322° |
| 2026-05-05 17:10 | 43.52182 | 9.51114 | 28836 ft | 438 kts | 313° |
| 2026-05-05 17:10 | 43.54514 | 9.48439 | 28084 ft | 437 kts | 314° |
| 2026-05-05 17:11 | 43.56814 | 9.45811 | 27344 ft | 433 kts | 314° |
| 2026-05-05 17:11 | 43.59114 | 9.43183 | 26600 ft | 430 kts | 314° |
| 2026-05-05 17:11 | 43.61402 | 9.40565 | 25849 ft | 427 kts | 314° |
| 2026-05-05 17:11 | 43.63682 | 9.37955 | 25093 ft | 424 kts | 315° |
| 2026-05-05 17:12 | 43.65926 | 9.35384 | 24342 ft | 420 kts | 315° |
| 2026-05-05 17:12 | 43.68171 | 9.32808 | 23584 ft | 417 kts | 314° |
| 2026-05-05 17:12 | 43.70387 | 9.30264 | 22834 ft | 414 kts | 314° |
| 2026-05-05 17:12 | 43.72572 | 9.27753 | 22087 ft | 410 kts | 315° |
| 2026-05-05 17:13 | 43.74757 | 9.25240 | 21332 ft | 407 kts | 315° |
| 2026-05-05 17:13 | 43.76920 | 9.22751 | 20576 ft | 403 kts | 315° |
| 2026-05-05 17:13 | 43.79037 | 9.20311 | 19830 ft | 399 kts | 315° |
| 2026-05-05 17:13 | 43.81170 | 9.17851 | 19081 ft | 396 kts | 314° |
| 2026-05-05 17:14 | 43.83260 | 9.15440 | 18248 ft | 395 kts | 315° |
| 2026-05-05 17:14 | 43.85360 | 9.13012 | 17369 ft | 395 kts | 315° |
| 2026-05-05 17:14 | 43.87466 | 9.10577 | 16492 ft | 393 kts | 315° |
| 2026-05-05 17:14 | 43.89533 | 9.08186 | 15623 ft | 391 kts | 315° |
| 2026-05-05 17:15 | 43.91613 | 9.05777 | 14748 ft | 388 kts | 315° |
| 2026-05-05 17:15 | 43.93527 | 9.03248 | 13956 ft | 376 kts | 304° |
| 2026-05-05 17:15 | 43.94769 | 9.00221 | 13159 ft | 361 kts | 287° |
| 2026-05-05 17:15 | 43.95430 | 8.96897 | 12366 ft | 353 kts | 280° |
| 2026-05-05 17:16 | 43.95985 | 8.93661 | 11548 ft | 349 kts | 280° |
| 2026-05-05 17:16 | 43.96548 | 8.90414 | 10998 ft | 337 kts | 280° |
| 2026-05-05 17:16 | 43.97085 | 8.87321 | 10534 ft | 325 kts | 280° |
| 2026-05-05 17:16 | 43.97602 | 8.84327 | 10101 ft | 315 kts | 280° |
| 2026-05-05 17:17 | 43.98100 | 8.81444 | 9688 ft | 306 kts | 280° |
| 2026-05-05 17:17 | 43.98591 | 8.78597 | 9283 ft | 298 kts | 280° |
| 2026-05-05 17:17 | 43.99058 | 8.75880 | 8898 ft | 291 kts | 280° |
| 2026-05-05 17:17 | 43.99522 | 8.73178 | 8515 ft | 284 kts | 280° |
| 2026-05-05 17:18 | 43.99973 | 8.70546 | 8154 ft | 277 kts | 280° |
| 2026-05-05 17:18 | 44.00416 | 8.67956 | 7777 ft | 272 kts | 280° |
| 2026-05-05 17:18 | 44.00845 | 8.65450 | 7482 ft | 265 kts | 280° |
| 2026-05-05 17:18 | 44.01263 | 8.62991 | 7114 ft | 265 kts | 280° |
| 2026-05-05 17:19 | 44.01689 | 8.60488 | 6760 ft | 265 kts | 280° |
| 2026-05-05 17:19 | 44.02110 | 8.58009 | 6407 ft | 263 kts | 281° |
| 2026-05-05 17:19 | 44.02525 | 8.55565 | 6068 ft | 263 kts | 281° |
| 2026-05-05 17:19 | 44.02946 | 8.53082 | 5719 ft | 262 kts | 281° |
| 2026-05-05 17:20 | 44.03359 | 8.50643 | 5376 ft | 262 kts | 281° |
| 2026-05-05 17:20 | 44.03775 | 8.48185 | 5031 ft | 262 kts | 281° |
| 2026-05-05 17:20 | 44.04188 | 8.45741 | 4688 ft | 258 kts | 282° |
| 2026-05-05 17:20 | 44.04596 | 8.43327 | 4350 ft | 252 kts | 282° |
| 2026-05-05 17:21 | 44.04985 | 8.41004 | 4027 ft | 247 kts | 282° |
| 2026-05-05 17:21 | 44.05111 | 8.38709 | 3970 ft | 229 kts | 269° |
| 2026-05-05 17:21 | 44.05074 | 8.36555 | 3756 ft | 223 kts | 269° |
| 2026-05-05 17:22 | 44.05041 | 8.32414 | 3136 ft | 204 kts | 268° |
| 2026-05-05 17:22 | 44.05029 | 8.30480 | 2802 ft | 192 kts | 268° |
| 2026-05-05 17:22 | 44.05019 | 8.28738 | 2527 ft | 170 kts | 268° |
| 2026-05-05 17:22 | 44.05010 | 8.27221 | 2351 ft | 144 kts | 269° |
| 2026-05-05 17:23 | 44.05001 | 8.25844 | 2109 ft | 140 kts | 269° |
| 2026-05-05 17:23 | 44.04993 | 8.24536 | 1867 ft | 133 kts | 269° |
| 2026-05-05 17:23 | 44.04985 | 8.23256 | 1677 ft | 131 kts | 269° |
| 2026-05-05 17:23 | 44.04975 | 8.22004 | 1451 ft | 131 kts | 269° |
| 2026-05-05 17:24 | 44.04922 | 8.20744 | 1197 ft | 130 kts | 265° |
| 2026-05-05 17:24 | 44.04856 | 8.19504 | 984 ft | 128 kts | 267° |
| 2026-05-05 17:24 | 44.04852 | 8.18276 | 859 ft | 128 kts | 274° |
| 2026-05-05 17:24 | 44.04896 | 8.17045 | 712 ft | 128 kts | 275° |
| 2026-05-05 17:25 | 44.04945 | 8.15800 | 529 ft | 129 kts | 274° |
| 2026-05-05 17:25 | 44.04969 | 8.14970 | 386 ft | 128 kts | 273° |
| 2026-05-05 17:25 | 44.05034 | 8.13355 | 123 ft | 122 kts | 275° |
| 2026-05-05 17:25 | 44.05071 | 8.12399 | 144 ft | 47 kts | 272° |
| 2026-05-05 17:26 | 44.05085 | 8.12019 | 157 ft | 26 kts | 272° |
| 2026-05-05 17:26 | 44.05023 | 8.11873 | 163 ft | 16 kts | 187° |
| 2026-05-05 17:26 | 44.04918 | 8.11880 | 167 ft | 14 kts | 150° |
| 2026-05-05 17:26 | 44.04841 | 8.11991 | 167 ft | 17 kts | 132° |
| 2026-05-05 17:27 | 44.04763 | 8.12102 | 166 ft | 11 kts | 135° |
| 2026-05-05 17:27 | 44.04706 | 8.12183 | 165 ft | 12 kts | 133° |
| 2026-05-05 17:27 | 44.04636 | 8.12285 | 161 ft | 17 kts | 133° |
| 2026-05-05 17:27 | 44.04584 | 8.12421 | 155 ft | 13 kts | 110° |
| 2026-05-05 17:28 | 44.04575 | 8.12550 | 148 ft | 13 kts | 73° |
| 2026-05-05 17:28 | 44.04575 | 8.12592 | 146 ft | 3 kts | 184° |
| 2026-05-05 17:28 | 44.04560 | 8.12590 | 146 ft | 0 kts | 182° |